EDW010 NZAA-LSZH
Flight info
| Callsign | EDW010 |
|---|---|
| Flight time | N/A |
| Altitude | 32000 |
| Route | UPLAR A464 RIGMI/N0503F340 A464 UNVAT/N0503F360 A464 TN J251 DN M768 ELBIS/N0492F380 M768 AKMON/K0895F400 M768 TSH R468 SAPEN/N0484F400 R468 ELMOP/N0484F260 R468 TIA/N0467F240 R468 BOKAK/N0484F400 R468 BKK P646 JJS B209 KKJ L333 MERUN G452 DERBO/N0487F430 G452 ZDN N319 ULDUS P567 DOLUM P130 REBLO UM11 CRM UL746 ODERO L746 LUGEB DCT DEGET DCT SUNIS DCT ERKIR DCT KPT L856 NEGRA |
| Aircraft | A359/H-SDE2E3GHIJ3J4J5LM1ORWXY/LB1D1 |
Departure
| Time | N/A |
|---|---|
| Airport | Auckland International Airport (NZAA) |
Arrival
| Time | 2026-02-19 15:35 |
|---|---|
| Airport | Zürich Airport (LSZH) |
| Time | Latitude | Longitude | Altitude | Speed | Heading |
|---|---|---|---|---|---|
| 2026-02-19 14:04 | 46.22491 | 22.06328 | 39896 ft | 421 kts | 292° |
| 2026-02-19 14:04 | 46.23791 | 22.02535 | 39891 ft | 421 kts | 292° |
| 2026-02-19 14:05 | 46.26385 | 21.94946 | 39889 ft | 421 kts | 292° |
| 2026-02-19 14:05 | 46.28957 | 21.87399 | 39884 ft | 421 kts | 292° |
| 2026-02-19 14:06 | 46.31540 | 21.79800 | 39881 ft | 421 kts | 292° |
| 2026-02-19 14:06 | 46.34119 | 21.72190 | 39888 ft | 421 kts | 292° |
| 2026-02-19 14:07 | 46.36697 | 21.64558 | 39867 ft | 422 kts | 292° |
| 2026-02-19 14:07 | 46.39274 | 21.56909 | 39867 ft | 422 kts | 292° |
| 2026-02-19 14:08 | 46.43129 | 21.45427 | 39860 ft | 422 kts | 292° |
| 2026-02-19 14:09 | 46.45689 | 21.37771 | 39861 ft | 422 kts | 291° |
| 2026-02-19 14:09 | 46.48240 | 21.30089 | 39855 ft | 422 kts | 290° |
| 2026-02-19 14:10 | 46.50061 | 21.22126 | 39854 ft | 418 kts | 281° |
| 2026-02-19 14:10 | 46.51391 | 21.13919 | 39854 ft | 417 kts | 280° |
| 2026-02-19 14:11 | 46.52635 | 21.05672 | 39846 ft | 417 kts | 280° |
| 2026-02-19 14:11 | 46.53870 | 20.97451 | 39847 ft | 417 kts | 280° |
| 2026-02-19 14:12 | 46.55114 | 20.89213 | 39839 ft | 418 kts | 280° |
| 2026-02-19 14:12 | 46.56981 | 20.76841 | 39837 ft | 418 kts | 279° |
| 2026-02-19 14:13 | 46.58218 | 20.68592 | 39834 ft | 418 kts | 279° |
| 2026-02-19 14:13 | 46.59449 | 20.60339 | 39840 ft | 418 kts | 279° |
| 2026-02-19 14:14 | 46.60677 | 20.52051 | 39837 ft | 420 kts | 279° |
| 2026-02-19 14:14 | 46.61894 | 20.43802 | 39836 ft | 420 kts | 279° |
| 2026-02-19 14:15 | 46.63115 | 20.35478 | 39837 ft | 420 kts | 279° |
| 2026-02-19 14:15 | 46.64332 | 20.27140 | 39838 ft | 420 kts | 279° |
| 2026-02-19 14:16 | 46.66143 | 20.14646 | 39836 ft | 420 kts | 279° |
| 2026-02-19 14:17 | 46.67341 | 20.06322 | 39839 ft | 420 kts | 279° |
| 2026-02-19 14:17 | 46.68529 | 19.98022 | 39832 ft | 420 kts | 279° |
| 2026-02-19 14:18 | 46.69715 | 19.89690 | 39837 ft | 420 kts | 279° |
| 2026-02-19 14:18 | 46.70897 | 19.81345 | 39836 ft | 421 kts | 279° |
| 2026-02-19 14:19 | 46.72077 | 19.72958 | 39833 ft | 423 kts | 279° |
| 2026-02-19 14:19 | 46.73252 | 19.64564 | 39833 ft | 423 kts | 279° |
| 2026-02-19 14:20 | 46.75587 | 19.47748 | 39815 ft | 423 kts | 278° |
| 2026-02-19 14:21 | 46.76701 | 19.39392 | 39831 ft | 422 kts | 277° |
| 2026-02-19 14:21 | 46.77805 | 19.30971 | 39823 ft | 423 kts | 277° |
| 2026-02-19 14:22 | 46.78936 | 19.22529 | 39822 ft | 423 kts | 277° |
| 2026-02-19 14:22 | 46.80074 | 19.14106 | 39826 ft | 423 kts | 277° |
| 2026-02-19 14:23 | 46.81210 | 19.05674 | 39835 ft | 423 kts | 277° |
| 2026-02-19 14:23 | 46.82332 | 18.97290 | 39825 ft | 424 kts | 277° |
| 2026-02-19 14:24 | 46.83462 | 18.88785 | 39825 ft | 424 kts | 277° |
| 2026-02-19 14:24 | 46.85132 | 18.76132 | 39830 ft | 424 kts | 277° |
| 2026-02-19 14:25 | 46.86239 | 18.67675 | 39816 ft | 424 kts | 277° |
| 2026-02-19 14:25 | 46.87342 | 18.59195 | 39814 ft | 425 kts | 277° |
| 2026-02-19 14:26 | 46.88437 | 18.50726 | 39812 ft | 425 kts | 277° |
| 2026-02-19 14:26 | 46.89529 | 18.42230 | 39811 ft | 425 kts | 277° |
| 2026-02-19 14:27 | 46.90614 | 18.33739 | 39808 ft | 425 kts | 277° |
| 2026-02-19 14:27 | 46.91693 | 18.25237 | 39809 ft | 425 kts | 277° |
| 2026-02-19 14:28 | 46.93300 | 18.12485 | 39799 ft | 425 kts | 277° |
| 2026-02-19 14:29 | 46.94366 | 18.03973 | 39798 ft | 425 kts | 277° |
| 2026-02-19 14:29 | 46.95416 | 17.95514 | 39791 ft | 425 kts | 276° |
| 2026-02-19 14:30 | 46.96464 | 17.87003 | 39814 ft | 425 kts | 276° |
| 2026-02-19 14:30 | 46.97509 | 17.78467 | 39788 ft | 426 kts | 276° |
| 2026-02-19 14:31 | 46.98552 | 17.69911 | 39784 ft | 427 kts | 276° |
| 2026-02-19 14:31 | 46.99588 | 17.61340 | 39780 ft | 427 kts | 276° |
| 2026-02-19 14:32 | 47.00613 | 17.52826 | 39780 ft | 427 kts | 276° |
| 2026-02-19 14:32 | 47.02149 | 17.39933 | 39775 ft | 428 kts | 276° |
| 2026-02-19 14:33 | 47.03168 | 17.31310 | 39771 ft | 429 kts | 276° |
| 2026-02-19 14:33 | 47.04010 | 17.24146 | 39771 ft | 429 kts | 276° |
| 2026-02-19 14:34 | 47.05181 | 17.14117 | 39770 ft | 429 kts | 276° |
| 2026-02-19 14:34 | 47.06021 | 17.06874 | 39779 ft | 429 kts | 276° |
| 2026-02-19 14:35 | 47.07012 | 16.98270 | 39771 ft | 432 kts | 275° |
| 2026-02-19 14:35 | 47.08007 | 16.89566 | 39770 ft | 432 kts | 275° |
| 2026-02-19 14:36 | 47.09490 | 16.76501 | 39768 ft | 432 kts | 275° |
| 2026-02-19 14:37 | 47.10469 | 16.67785 | 39773 ft | 432 kts | 275° |
| 2026-02-19 14:37 | 47.11444 | 16.59042 | 39760 ft | 435 kts | 275° |
| 2026-02-19 14:38 | 47.12418 | 16.50254 | 39766 ft | 437 kts | 275° |
| 2026-02-19 14:38 | 47.13383 | 16.41489 | 39759 ft | 437 kts | 275° |
| 2026-02-19 14:39 | 47.14346 | 16.32678 | 39758 ft | 437 kts | 275° |
| 2026-02-19 14:39 | 47.15319 | 16.23850 | 39754 ft | 437 kts | 275° |
| 2026-02-19 14:40 | 47.16289 | 16.15018 | 39745 ft | 437 kts | 275° |
| 2026-02-19 14:40 | 47.17734 | 16.01783 | 39738 ft | 437 kts | 275° |
| 2026-02-19 14:41 | 47.18695 | 15.92958 | 39735 ft | 437 kts | 276° |
| 2026-02-19 14:41 | 47.19685 | 15.84126 | 39729 ft | 438 kts | 276° |
| 2026-02-19 14:42 | 47.20616 | 15.75239 | 39719 ft | 441 kts | 274° |
| 2026-02-19 14:42 | 47.21499 | 15.66291 | 39714 ft | 442 kts | 274° |
| 2026-02-19 14:43 | 47.22398 | 15.57400 | 39717 ft | 442 kts | 274° |
| 2026-02-19 14:43 | 47.23319 | 15.48451 | 39717 ft | 442 kts | 275° |
| 2026-02-19 14:44 | 47.24696 | 15.35002 | 39705 ft | 444 kts | 275° |
| 2026-02-19 14:45 | 47.25613 | 15.26006 | 39701 ft | 444 kts | 275° |
| 2026-02-19 14:45 | 47.26549 | 15.17011 | 39702 ft | 444 kts | 275° |
| 2026-02-19 14:46 | 47.27471 | 15.08010 | 39698 ft | 444 kts | 275° |
| 2026-02-19 14:46 | 47.28363 | 14.99060 | 39670 ft | 444 kts | 275° |
| 2026-02-19 14:47 | 47.29245 | 14.90093 | 39674 ft | 444 kts | 275° |
| 2026-02-19 14:47 | 47.30126 | 14.81048 | 39675 ft | 444 kts | 275° |
| 2026-02-19 14:48 | 47.30995 | 14.72033 | 39672 ft | 444 kts | 275° |
| 2026-02-19 14:48 | 47.32282 | 14.58509 | 39666 ft | 445 kts | 275° |
| 2026-02-19 14:49 | 47.33132 | 14.49480 | 39656 ft | 445 kts | 275° |
| 2026-02-19 14:49 | 47.33980 | 14.40434 | 39648 ft | 445 kts | 275° |
| 2026-02-19 14:50 | 47.34807 | 14.31379 | 39639 ft | 445 kts | 275° |
| 2026-02-19 14:50 | 47.35626 | 14.22394 | 39630 ft | 445 kts | 275° |
| 2026-02-19 14:51 | 47.36479 | 14.13326 | 39624 ft | 446 kts | 274° |
| 2026-02-19 14:51 | 47.37265 | 14.04248 | 39620 ft | 446 kts | 274° |
| 2026-02-19 14:52 | 47.38448 | 13.90630 | 39609 ft | 446 kts | 274° |
| 2026-02-19 14:53 | 47.39247 | 13.81551 | 39619 ft | 446 kts | 274° |
| 2026-02-19 14:53 | 47.40047 | 13.72449 | 39611 ft | 447 kts | 274° |
| 2026-02-19 14:54 | 47.40835 | 13.63393 | 39604 ft | 448 kts | 274° |
| 2026-02-19 14:54 | 47.41621 | 13.54248 | 39605 ft | 449 kts | 274° |
| 2026-02-19 14:55 | 47.42405 | 13.45089 | 39602 ft | 449 kts | 274° |
| 2026-02-19 14:55 | 47.43178 | 13.35923 | 39610 ft | 450 kts | 272° |
| 2026-02-19 14:56 | 47.43835 | 13.26731 | 39608 ft | 450 kts | 272° |
| 2026-02-19 14:56 | 47.44857 | 13.12919 | 39615 ft | 451 kts | 273° |
| 2026-02-19 14:57 | 47.45610 | 13.03710 | 39632 ft | 451 kts | 273° |
| 2026-02-19 14:57 | 47.46361 | 12.94508 | 39628 ft | 452 kts | 273° |
| 2026-02-19 14:58 | 47.47093 | 12.85273 | 39633 ft | 452 kts | 273° |
| 2026-02-19 14:58 | 47.47818 | 12.76045 | 39636 ft | 452 kts | 273° |
| 2026-02-19 14:59 | 47.48542 | 12.66856 | 39642 ft | 452 kts | 273° |
| 2026-02-19 14:59 | 47.49259 | 12.57605 | 39649 ft | 452 kts | 273° |
| 2026-02-19 15:00 | 47.50323 | 12.43676 | 39648 ft | 455 kts | 273° |
| 2026-02-19 15:01 | 47.51022 | 12.34377 | 39649 ft | 455 kts | 274° |
| 2026-02-19 15:01 | 47.51754 | 12.25105 | 39659 ft | 455 kts | 274° |
| 2026-02-19 15:02 | 47.52486 | 12.15781 | 39658 ft | 455 kts | 274° |
| 2026-02-19 15:02 | 47.53191 | 12.06472 | 39661 ft | 455 kts | 273° |
| 2026-02-19 15:03 | 47.54103 | 11.97252 | 39663 ft | 457 kts | 277° |
| 2026-02-19 15:03 | 47.55283 | 11.87950 | 39663 ft | 456 kts | 277° |
| 2026-02-19 15:04 | 47.56480 | 11.78789 | 39662 ft | 456 kts | 278° |
| 2026-02-19 15:04 | 47.58294 | 11.64934 | 39667 ft | 458 kts | 278° |
| 2026-02-19 15:05 | 47.59498 | 11.55658 | 39670 ft | 458 kts | 278° |
| 2026-02-19 15:05 | 47.60705 | 11.46391 | 39665 ft | 458 kts | 278° |
| 2026-02-19 15:06 | 47.61896 | 11.37176 | 39672 ft | 457 kts | 278° |
| 2026-02-19 15:06 | 47.63075 | 11.27899 | 39666 ft | 459 kts | 278° |
| 2026-02-19 15:07 | 47.64246 | 11.18588 | 39666 ft | 459 kts | 278° |
| 2026-02-19 15:07 | 47.65412 | 11.09270 | 39659 ft | 459 kts | 278° |
| 2026-02-19 15:08 | 47.67146 | 10.95283 | 39654 ft | 459 kts | 278° |
| 2026-02-19 15:09 | 47.68291 | 10.85943 | 39651 ft | 461 kts | 278° |
| 2026-02-19 15:09 | 47.69425 | 10.76639 | 39639 ft | 461 kts | 278° |
| 2026-02-19 15:10 | 47.70562 | 10.67273 | 39642 ft | 461 kts | 278° |
| 2026-02-19 15:10 | 47.71691 | 10.57908 | 39641 ft | 461 kts | 278° |
| 2026-02-19 15:11 | 47.72814 | 10.48506 | 39645 ft | 462 kts | 278° |
| 2026-02-19 15:11 | 47.73925 | 10.39115 | 39495 ft | 457 kts | 277° |
| 2026-02-19 15:11 | 47.74274 | 10.34437 | 38791 ft | 457 kts | 271° |
| 2026-02-19 15:12 | 47.74328 | 10.29668 | 37802 ft | 463 kts | 269° |
| 2026-02-19 15:12 | 47.74220 | 10.20068 | 35697 ft | 472 kts | 267° |
| 2026-02-19 15:12 | 47.74121 | 10.15177 | 34821 ft | 474 kts | 266° |
| 2026-02-19 15:13 | 47.74010 | 10.10212 | 33902 ft | 477 kts | 266° |
| 2026-02-19 15:13 | 47.73896 | 10.05273 | 32821 ft | 480 kts | 266° |
| 2026-02-19 15:13 | 47.73780 | 10.00370 | 31824 ft | 481 kts | 266° |
| 2026-02-19 15:13 | 47.73658 | 9.95394 | 30786 ft | 483 kts | 265° |
| 2026-02-19 15:14 | 47.73524 | 9.90396 | 29754 ft | 486 kts | 265° |
| 2026-02-19 15:14 | 47.73372 | 9.85412 | 28974 ft | 480 kts | 264° |
| 2026-02-19 15:14 | 47.73217 | 9.80489 | 28233 ft | 474 kts | 264° |
| 2026-02-19 15:14 | 47.73068 | 9.75632 | 27493 ft | 469 kts | 265° |
| 2026-02-19 15:15 | 47.72929 | 9.70799 | 26770 ft | 465 kts | 265° |
| 2026-02-19 15:15 | 47.72796 | 9.66034 | 26032 ft | 460 kts | 265° |
| 2026-02-19 15:15 | 47.72669 | 9.61307 | 25312 ft | 456 kts | 265° |
| 2026-02-19 15:15 | 47.72534 | 9.56634 | 24602 ft | 451 kts | 265° |
| 2026-02-19 15:16 | 47.72394 | 9.52011 | 23873 ft | 446 kts | 265° |
| 2026-02-19 15:16 | 47.71567 | 9.43019 | 22342 ft | 434 kts | 248° |
| 2026-02-19 15:16 | 47.70158 | 9.39140 | 21616 ft | 425 kts | 234° |
| 2026-02-19 15:17 | 47.68364 | 9.35700 | 20875 ft | 419 kts | 229° |
| 2026-02-19 15:17 | 47.66520 | 9.32402 | 20174 ft | 413 kts | 230° |
| 2026-02-19 15:17 | 47.64703 | 9.29139 | 19465 ft | 407 kts | 230° |
| 2026-02-19 15:17 | 47.62938 | 9.25955 | 18764 ft | 403 kts | 230° |
| 2026-02-19 15:18 | 47.61741 | 9.23782 | 18267 ft | 401 kts | 231° |
| 2026-02-19 15:18 | 47.60012 | 9.20289 | 17698 ft | 390 kts | 240° |
| 2026-02-19 15:18 | 47.58975 | 9.16657 | 17267 ft | 377 kts | 254° |
| 2026-02-19 15:18 | 47.58438 | 9.13031 | 16761 ft | 368 kts | 259° |
| 2026-02-19 15:19 | 47.57989 | 9.09333 | 16257 ft | 360 kts | 259° |
| 2026-02-19 15:19 | 47.57612 | 9.05710 | 15763 ft | 352 kts | 263° |
| 2026-02-19 15:19 | 47.57523 | 9.02128 | 15259 ft | 345 kts | 271° |
| 2026-02-19 15:19 | 47.57728 | 8.98617 | 14754 ft | 340 kts | 275° |
| 2026-02-19 15:20 | 47.58015 | 8.95177 | 14148 ft | 328 kts | 276° |
| 2026-02-19 15:20 | 47.58558 | 8.88874 | 12876 ft | 293 kts | 276° |
| 2026-02-19 15:20 | 47.58721 | 8.86924 | 12424 ft | 284 kts | 275° |
| 2026-02-19 15:21 | 47.58801 | 8.83587 | 11651 ft | 276 kts | 264° |
| 2026-02-19 15:21 | 47.58382 | 8.80840 | 10986 ft | 273 kts | 249° |
| 2026-02-19 15:21 | 47.57498 | 8.78371 | 10352 ft | 270 kts | 237° |
| 2026-02-19 15:21 | 47.56409 | 8.76136 | 9922 ft | 262 kts | 234° |
| 2026-02-19 15:22 | 47.54440 | 8.72243 | 9706 ft | 219 kts | 234° |
| 2026-02-19 15:22 | 47.53826 | 8.71010 | 9637 ft | 220 kts | 235° |
| 2026-02-19 15:22 | 47.52923 | 8.69192 | 9525 ft | 223 kts | 235° |
| 2026-02-19 15:23 | 47.52013 | 8.67366 | 9398 ft | 221 kts | 235° |
| 2026-02-19 15:23 | 47.51101 | 8.65534 | 9256 ft | 220 kts | 235° |
| 2026-02-19 15:23 | 47.50195 | 8.63711 | 9114 ft | 219 kts | 236° |
| 2026-02-19 15:23 | 47.49291 | 8.61894 | 8985 ft | 219 kts | 235° |
| 2026-02-19 15:24 | 47.46599 | 8.56492 | 8440 ft | 215 kts | 236° |
| 2026-02-19 15:24 | 47.45731 | 8.54712 | 8189 ft | 212 kts | 239° |
| 2026-02-19 15:25 | 47.45141 | 8.52739 | 7913 ft | 209 kts | 258° |
| 2026-02-19 15:25 | 47.45154 | 8.50616 | 7648 ft | 209 kts | 281° |
| 2026-02-19 15:25 | 47.45811 | 8.48699 | 7402 ft | 214 kts | 304° |
| 2026-02-19 15:25 | 47.47020 | 8.47388 | 7157 ft | 223 kts | 330° |
| 2026-02-19 15:26 | 47.48529 | 8.46753 | 6904 ft | 226 kts | 340° |
| 2026-02-19 15:26 | 47.50075 | 8.46310 | 6662 ft | 227 kts | 342° |
| 2026-02-19 15:26 | 47.51623 | 8.45882 | 6420 ft | 226 kts | 342° |
| 2026-02-19 15:26 | 47.53162 | 8.45445 | 6167 ft | 225 kts | 341° |
| 2026-02-19 15:27 | 47.54694 | 8.44979 | 6047 ft | 224 kts | 338° |
| 2026-02-19 15:27 | 47.56215 | 8.44480 | 5897 ft | 224 kts | 338° |
| 2026-02-19 15:27 | 47.57739 | 8.43982 | 5774 ft | 224 kts | 338° |
| 2026-02-19 15:27 | 47.59266 | 8.43494 | 5604 ft | 224 kts | 339° |
| 2026-02-19 15:28 | 47.60788 | 8.43013 | 5485 ft | 224 kts | 339° |
| 2026-02-19 15:28 | 47.63838 | 8.42075 | 5220 ft | 224 kts | 340° |
| 2026-02-19 15:28 | 47.65315 | 8.41460 | 5101 ft | 218 kts | 328° |
| 2026-02-19 15:29 | 47.66444 | 8.40137 | 4838 ft | 207 kts | 300° |
| 2026-02-19 15:29 | 47.66925 | 8.38200 | 4685 ft | 200 kts | 272° |
| 2026-02-19 15:29 | 47.66718 | 8.36183 | 4632 ft | 201 kts | 247° |
| 2026-02-19 15:30 | 47.64571 | 8.33656 | 4525 ft | 212 kts | 192° |
| 2026-02-19 15:30 | 47.63084 | 8.33905 | 4448 ft | 222 kts | 166° |
| 2026-02-19 15:30 | 47.61729 | 8.35080 | 4316 ft | 229 kts | 143° |
| 2026-02-19 15:30 | 47.60598 | 8.36687 | 4204 ft | 220 kts | 138° |
| 2026-02-19 15:31 | 47.59533 | 8.38217 | 4119 ft | 206 kts | 140° |
| 2026-02-19 15:31 | 47.57515 | 8.40975 | 3959 ft | 197 kts | 142° |
| 2026-02-19 15:31 | 47.56495 | 8.42326 | 3729 ft | 195 kts | 142° |
| 2026-02-19 15:32 | 47.55495 | 8.43676 | 3469 ft | 194 kts | 141° |
| 2026-02-19 15:32 | 47.53648 | 8.46209 | 2986 ft | 165 kts | 142° |
| 2026-02-19 15:32 | 47.52843 | 8.47308 | 2773 ft | 151 kts | 141° |
| 2026-02-19 15:33 | 47.51412 | 8.49255 | 2368 ft | 132 kts | 140° |
| 2026-02-19 15:33 | 47.50744 | 8.50165 | 2153 ft | 129 kts | 138° |
| 2026-02-19 15:33 | 47.50089 | 8.51058 | 1959 ft | 127 kts | 136° |
| 2026-02-19 15:34 | 47.48800 | 8.52811 | 1625 ft | 125 kts | 137° |
| 2026-02-19 15:34 | 47.48166 | 8.53668 | 1446 ft | 123 kts | 139° |
| 2026-02-19 15:34 | 47.47575 | 8.54470 | 1409 ft | 101 kts | 137° |
| 2026-02-19 15:35 | 47.47140 | 8.55067 | 1403 ft | 70 kts | 137° |
| 2026-02-19 15:35 | 47.46861 | 8.55442 | 1408 ft | 38 kts | 137° |
| 2026-02-19 15:35 | 47.46699 | 8.55624 | 1406 ft | 28 kts | 154° |
| 2026-02-19 15:35 | 47.46509 | 8.55708 | 1403 ft | 26 kts | 167° |
| 2026-02-19 15:36 | 47.46376 | 8.55768 | 1414 ft | 15 kts | 142° |
| 2026-02-19 15:36 | 47.46257 | 8.55889 | 1418 ft | 3 kts | 197° |
| 2026-02-19 15:36 | 47.46244 | 8.55873 | 1418 ft | 2 kts | 224° |
| 2026-02-19 15:37 | 47.46236 | 8.55846 | 1418 ft | 3 kts | 256° |
| 2026-02-19 15:37 | 47.46232 | 8.55799 | 1412 ft | 4 kts | 251° |
| 2026-02-19 15:37 | 47.46226 | 8.55795 | 1411 ft | 1 kts | 212° |
| 2026-02-19 15:37 | 47.46194 | 8.55786 | 1414 ft | 11 kts | 188° |
| 2026-02-19 15:38 | 47.46164 | 8.55781 | 1412 ft | 5 kts | 186° |
| 2026-02-19 15:38 | 47.46156 | 8.55780 | 1414 ft | 0 kts | 186° |